Khairpur Tamewali Weather



Khairpur Tamewali's Current Weather

Temprature 21.59o overcast clouds

overcast clouds

Rain: 0 %

Min Temprature21.59o
Max Temprature21.59o
Humidity30
Wind Speed4.17 m/h
Sun Rise06:39:55
Sun Set18:08:11
Current Time: 27-Feb-2020 01:42:51
Lat/Lon: 29.58, 72.25




Khairpur Tamewali's Geo Location



Khairpur Tamewali's Weather Forecast

Time Overall Temp Min Temp Max Temp Humidity Wind Speed Rain
27-Feb-2020 (Thu)
02:00:00 overcast clouds 21.590 21.590 21.590 30 4.17 m/h 0 %
05:00:00 broken clouds 19.660 19.660 19.660 34 4.72 m/h 0 %
08:00:00 scattered clouds 21.030 21.030 21.030 34 4.82 m/h 0 %
11:00:00 scattered clouds 29.290 29.290 29.290 18 5.78 m/h 0 %
14:00:00 clear sky 31.760 31.760 31.760 14 3.31 m/h 0 %
17:00:00 few clouds 31.180 31.180 31.180 15 1.96 m/h 0 %
20:00:00 clear sky 25.720 25.720 25.720 21 4.2 m/h 0 %
23:00:00 clear sky 24.020 24.020 24.020 24 5.77 m/h 0 %
28-Feb-2020 (Fri)
02:00:00 clear sky 22.830 22.830 22.830 27 5.91 m/h 0 %
05:00:00 clear sky 20.950 20.950 20.950 32 5.06 m/h 0 %
08:00:00 light rain 21.190 21.190 21.190 35 5.71 m/h 13 %
11:00:00 light rain 28.690 28.690 28.690 23 7.2 m/h 25 %
14:00:00 light rain 32.860 32.860 32.860 14 5.41 m/h 13 %
17:00:00 clear sky 32.880 32.880 32.880 12 5.01 m/h 0 %
20:00:00 clear sky 25.180 25.180 25.180 29 6.34 m/h 0 %
23:00:00 clear sky 22.240 22.240 22.240 33 2.06 m/h 0 %
29-Feb-2020 (Sat)
02:00:00 light rain 17.690 17.690 17.690 59 4.15 m/h 13 %
05:00:00 clear sky 15.550 15.550 15.550 79 4.98 m/h 0 %
08:00:00 broken clouds 16.000 16.000 16.000 78 4.14 m/h 0 %
11:00:00 scattered clouds 24.200 24.200 24.200 42 4.96 m/h 0 %
14:00:00 scattered clouds 28.550 28.550 28.550 27 1.79 m/h 0 %
17:00:00 scattered clouds 29.090 29.090 29.090 23 2.41 m/h 0 %
20:00:00 clear sky 22.130 22.130 22.130 50 8.77 m/h 0 %
23:00:00 clear sky 18.960 18.960 18.960 65 7.47 m/h 0 %
01-Mar-2020 (Sun)
02:00:00 clear sky 16.820 16.820 16.820 74 2.75 m/h 0 %
05:00:00 clear sky 14.930 14.930 14.930 85 4.67 m/h 0 %
08:00:00 clear sky 15.870 15.870 15.870 78 5.01 m/h 0 %
11:00:00 clear sky 23.540 23.540 23.540 47 3.72 m/h 0 %
14:00:00 clear sky 28.880 28.880 28.880 26 3.42 m/h 0 %
17:00:00 clear sky 29.380 29.380 29.380 20 2.62 m/h 0 %
20:00:00 clear sky 23.130 23.130 23.130 31 5.01 m/h 0 %
23:00:00 clear sky 20.100 20.100 20.100 44 5.47 m/h 0 %
02-Mar-2020 (Mon)
02:00:00 broken clouds 18.510 18.510 18.510 49 4.39 m/h 0 %
05:00:00 broken clouds 16.830 16.830 16.830 59 3.53 m/h 0 %
08:00:00 few clouds 18.620 18.620 18.620 56 3.81 m/h 0 %
11:00:00 few clouds 26.420 26.420 26.420 33 1.89 m/h 0 %
14:00:00 clear sky 29.510 29.510 29.510 19 1.77 m/h 0 %
17:00:00 clear sky 29.460 29.460 29.460 19 2.95 m/h 0 %
20:00:00 clear sky 24.770 24.770 24.770 24 3.1 m/h 0 %
23:00:00 clear sky 22.370 22.370 22.370 29 4 m/h 0 %

Famous Cities (61)